Terminal Aerodrome Forecast
Issued by NWS

Home | Current Version | Previous Version | Text Only | Print | Product List | Glossary On
Versions: 1 2 3 4 5 6 7 8 9 10 11 12 13
000
FTUS46 KSGX 200819 AAA
TAFPSP
TAF AMD
KPSP 200819Z 2008/2106 33009KT P6SM FEW100
      TEMPO 2008/2012 35012G20KT
     FM201600 33015G25KT P6SM FEW100 SCT150
     FM202100 33020G30KT P6SM SKC=

USA.gov is the U.S. government's official web portal to all federal, state and local government web resources and services.